Time;durP1;ratioP1;P1;durP2;ratioP2;P2;SDS_P1;SDS_P2;PMS_P1;PMS_P2;Temp;Humidity;BMP_temperature;BMP_pressure;BME280_temperature;BME280_humidity;BME280_pressure;Samples;Min_cycle;Max_cycle;Signal;HPM_P1;HPM_P2
2022/02/04 00:07:13;;;;;;;23.27;11.70;;;;;;;6.83;100.00;101225.28;4979856;28;20053;-71
2022/02/04 00:21:21;;;;;;;22.45;10.55;;;;;;;6.81;100.00;101204.06;5059526;28;20159;-77
2022/02/04 00:23:51;;;;;;;21.45;10.43;;;;;;;6.80;100.00;101198.78;5056645;28;20416;-76
2022/02/04 00:26:22;;;;;;;19.40;9.73;;;;;;;6.82;100.00;101196.97;5059603;28;20072;-79
2022/02/04 00:28:58;;;;;;;21.42;9.45;;;;;;;6.82;100.00;101196.97;5060578;28;20052;-79
2022/02/04 00:31:29;;;;;;;18.25;9.07;;;;;;;6.86;100.00;101185.44;5061091;28;20053;-80
2022/02/04 00:34:03;;;;;;;14.90;7.93;;;;;;;6.87;100.00;101184.53;5059451;28;20091;-77
2022/02/04 00:37:07;;;;;;;17.52;9.27;;;;;;;6.87;100.00;101182.75;5059780;28;20500;-79
2022/02/04 00:39:43;;;;;;;17.33;9.13;;;;;;;6.86;100.00;101180.13;5061487;28;20044;-77
2022/02/04 00:42:12;;;;;;;19.08;8.35;;;;;;;6.90;100.00;101166.81;5058262;28;20572;-79
2022/02/04 00:44:42;;;;;;;16.77;9.32;;;;;;;6.86;100.00;101172.16;5060022;28;20060;-78
2022/02/04 00:47:33;;;;;;;17.33;9.23;;;;;;;6.85;100.00;101181.91;5058595;28;20148;-79
2022/02/04 00:50:30;;;;;;;15.50;8.50;;;;;;;6.87;100.00;101181.88;5058509;28;20491;-79
2022/02/04 00:53:11;;;;;;;21.20;8.73;;;;;;;6.83;100.00;101182.84;5059566;28;20605;-79
2022/02/04 00:55:46;;;;;;;19.25;9.07;;;;;;;6.82;100.00;101189.03;5060705;28;20052;-79
2022/02/04 01:26:47;;;;;;;15.43;7.05;;;;;;;6.87;100.00;101155.38;5059492;28;20139;-79
2022/02/04 01:29:16;;;;;;;16.95;6.95;;;;;;;6.83;100.00;101154.53;5059329;28;20065;-78
2022/02/04 01:31:45;;;;;;;19.30;7.93;;;;;;;6.90;100.00;101153.56;5057933;28;20043;-78
2022/02/04 01:34:13;;;;;;;16.52;7.07;;;;;;;6.86;100.00;101145.63;5058851;28;20040;-79
2022/02/04 01:36:41;;;;;;;14.23;7.07;;;;;;;6.85;100.00;101142.13;5059626;28;20155;-79
2022/02/04 01:39:09;;;;;;;15.05;7.18;;;;;;;6.87;100.00;101144.75;5058698;28;20171;-78
2022/02/04 01:41:39;;;;;;;14.20;6.82;;;;;;;6.86;100.00;101142.97;5060491;28;20075;-71
2022/02/04 01:44:30;;;;;;;19.67;6.80;;;;;;;6.91;100.00;101152.66;5039417;28;20052;-71
2022/02/04 01:47:25;;;;;;;18.38;6.95;;;;;;;6.92;100.00;101145.56;5058538;28;20047;-72
2022/02/04 01:50:02;;;;;;;17.77;7.05;;;;;;;6.88;100.00;101146.53;5057388;28;20096;-72
2022/02/04 01:52:33;;;;;;;14.00;6.05;;;;;;;6.87;100.00;101144.75;5042228;28;20133;-72
2022/02/04 01:55:36;;;;;;;16.42;6.50;;;;;;;6.83;100.00;101146.56;5059731;28;20052;-72
2022/02/04 01:58:50;;;;;;;18.55;6.55;;;;;;;6.83;100.00;101135.09;5052130;28;20052;-72
2022/02/04 02:01:51;;;;;;;15.35;6.70;;;;;;;6.83;100.00;101128.00;5043360;28;20423;-72
2022/02/04 02:04:29;;;;;;;14.82;7.13;;;;;;;6.83;100.00;101127.13;5041140;28;20056;-72
2022/02/04 02:07:09;;;;;;;12.30;5.93;;;;;;;6.89;100.00;101111.97;5057212;28;20349;-72
2022/02/04 02:09:55;;;;;;;10.27;4.75;;;;;;;6.90;100.00;101118.19;5056672;28;20059;-72
2022/02/04 02:12:37;;;;;;;10.80;5.03;;;;;;;6.90;100.00;101119.06;5031369;28;20041;-72
2022/02/04 02:15:40;;;;;;;10.70;5.93;;;;;;;6.95;100.00;101107.50;5033880;28;20106;-72
2022/02/04 02:35:32;;;;;;;12.73;5.28;;;;;;;7.01;100.00;101099.47;5016504;28;20073;-78
2022/02/04 02:44:33;;;;;;;13.05;5.35;;;;;;;6.99;100.00;101099.50;5063177;28;20518;-71
2022/02/04 02:47:29;;;;;;;14.15;6.10;;;;;;;7.01;100.00;101096.81;5061695;28;20044;-78
2022/02/04 02:53:15;;;;;;;17.90;5.10;;;;;;;7.01;100.00;101081.78;5060018;28;20055;-78
2022/02/04 02:55:51;;;;;;;10.57;4.88;;;;;;;7.00;100.00;101087.09;5062670;28;20052;-78
2022/02/04 02:58:23;;;;;;;17.02;6.18;;;;;;;6.99;100.00;101074.75;5064207;28;20079;-78
2022/02/04 03:01:08;;;;;;;18.85;6.18;;;;;;;6.96;100.00;101075.66;5055571;28;20080;-71
2022/02/04 03:03:44;;;;;;;19.67;5.47;;;;;;;6.96;100.00;101072.13;5033618;28;20052;-71
2022/02/04 03:06:18;;;;;;;14.48;4.45;;;;;;;7.02;100.00;101058.78;5062468;28;20132;-71
2022/02/04 03:09:02;;;;;;;11.27;5.18;;;;;;;7.01;100.00;101067.63;5063684;28;20045;-71
2022/02/04 03:11:48;;;;;;;10.95;4.60;;;;;;;7.03;100.00;101069.38;5061483;28;20052;-71
2022/02/04 03:14:25;;;;;;;12.13;5.20;;;;;;;7.06;100.00;101076.41;5059619;28;20048;-71
2022/02/04 03:17:04;;;;;;;11.48;4.78;;;;;;;7.00;100.00;101077.38;5061930;28;20085;-71
2022/02/04 03:19:58;;;;;;;11.40;4.50;;;;;;;7.07;100.00;101075.53;5044724;28;20182;-71
2022/02/04 03:22:34;;;;;;;15.77;4.80;;;;;;;7.05;100.00;101064.06;5062125;28;20504;-71
2022/02/04 03:25:09;;;;;;;9.65;4.50;;;;;;;7.07;100.00;101059.59;5059338;28;20331;-71
2022/02/04 03:27:55;;;;;;;14.75;4.85;;;;;;;7.11;100.00;101056.84;5042281;28;20136;-71
2022/02/04 03:30:33;;;;;;;17.13;4.25;;;;;;;7.13;100.00;101048.00;5059814;28;20049;-71
2022/02/04 03:33:12;;;;;;;;;;;;;;;7.12;100.00;101049.81;5061106;28;20079;-71
2022/02/04 03:36:22;;;;;;;11.45;3.78;;;;;;;7.07;100.00;101055.16;5061977;28;20272;-71
2022/02/04 03:41:52;;;;;;;7.90;3.92;;;;;;;7.03;100.00;101050.81;5060684;28;20040;-71
2022/02/04 03:44:27;;;;;;;10.67;4.13;;;;;;;7.02;100.00;101048.19;5059138;28;20051;-77
2022/02/04 03:46:55;;;;;;;10.93;4.00;;;;;;;7.03;100.00;101052.56;5060538;28;20048;-77
2022/02/04 03:49:24;;;;;;;11.23;3.97;;;;;;;7.06;100.00;101053.41;5061351;28;20044;-78
2022/02/04 03:51:52;;;;;;;10.93;4.20;;;;;;;7.07;100.00;101041.91;5060141;28;20040;-78
2022/02/04 03:54:20;;;;;;;8.38;3.70;;;;;;;7.08;100.00;101042.75;5059885;28;20052;-78
2022/02/04 03:56:49;;;;;;;7.00;3.58;;;;;;;7.13;100.00;101040.06;5060786;28;20076;-78
2022/02/04 03:59:17;;;;;;;11.23;3.72;;;;;;;7.11;100.00;101040.06;5059459;28;20079;-77
2022/02/04 04:01:46;;;;;;;12.20;4.95;;;;;;;7.10;100.00;101031.25;5059672;28;20076;-78
2022/02/04 04:04:14;;;;;;;10.40;3.42;;;;;;;7.09;100.00;101032.13;5059651;28;20135;-78
2022/02/04 04:07:06;;;;;;;13.13;3.70;;;;;;;7.09;100.00;101024.16;5063930;28;20060;-78
2022/02/04 04:09:48;;;;;;;5.47;3.22;;;;;;;7.10;100.00;101025.06;5061234;28;20076;-71
2022/02/04 04:12:28;;;;;;;12.55;3.47;;;;;;;7.05;100.00;101027.78;5057117;28;20044;-71
2022/02/04 04:15:10;;;;;;;11.43;3.67;;;;;;;7.03;100.00;101028.69;5058417;28;20055;-71
2022/02/04 04:17:47;;;;;;;9.10;3.17;;;;;;;7.06;100.00;101026.84;5057697;28;20056;-71
2022/02/04 04:20:19;;;;;;;7.47;3.50;;;;;;;7.10;100.00;101025.94;5060191;28;20143;-78
2022/02/04 04:22:47;;;;;;;8.50;3.20;;;;;;;7.05;100.00;101024.25;5065073;28;20098;-79
2022/02/04 04:25:16;;;;;;;11.18;3.38;;;;;;;7.06;100.00;101018.91;5060272;28;20098;-78
2022/02/04 04:27:45;;;;;;;9.15;3.65;;;;;;;7.07;100.00;101023.31;5059447;28;20464;-78
2022/02/04 04:30:15;;;;;;;7.90;3.17;;;;;;;7.08;100.00;101008.25;5061651;28;20060;-78
2022/02/04 04:32:46;;;;;;;10.75;3.42;;;;;;;7.05;100.00;101017.16;5059425;28;20060;-79
2022/02/04 04:35:17;;;;;;;9.00;2.83;;;;;;;7.04;100.00;101020.69;5060397;28;20044;-78
2022/02/04 04:37:57;;;;;;;7.90;3.03;;;;;;;7.01;100.00;101028.69;5059740;28;20049;-71
2022/02/04 04:41:01;;;;;;;7.97;2.60;;;;;;;7.02;100.00;101019.00;5062186;28;20129;-78
2022/02/04 04:43:44;;;;;;;8.25;3.15;;;;;;;7.07;100.00;101023.31;5058487;28;20074;-78
2022/02/04 05:29:59;;;;;;;8.52;3.67;;;;;;;7.17;100.00;100959.47;5049640;28;20056;-71
2022/02/04 05:32:51;;;;;;;5.55;3.00;;;;;;;7.17;100.00;100955.06;5040054;28;20325;-71
2022/02/04 05:35:39;;;;;;;8.77;3.50;;;;;;;7.14;100.00;100951.59;5059919;28;20452;-71
2022/02/04 05:38:50;;;;;;;10.93;3.47;;;;;;;7.09;100.00;100930.44;5058938;28;20512;-71
2022/02/04 05:41:35;;;;;;;8.93;3.90;;;;;;;7.13;100.00;100944.50;5058775;28;20143;-71
2022/02/04 05:47:36;;;;;;;7.90;3.67;;;;;;;7.05;100.00;100926.94;5054163;28;20177;-71
2022/02/04 05:50:24;;;;;;;8.68;3.50;;;;;;;7.07;100.00;100911.00;5057586;28;20423;-71
2022/02/04 05:56:07;;;;;;;11.70;3.97;;;;;;;7.07;100.00;100916.31;5054671;28;20390;-77
2022/02/04 05:59:06;;;;;;;10.15;3.30;;;;;;;7.08;100.00;100912.75;5055603;28;20113;-78
2022/02/04 06:01:48;;;;;;;8.10;3.47;;;;;;;7.05;100.00;100920.78;5059728;28;20156;-77
2022/02/04 06:04:29;;;;;;;8.25;3.38;;;;;;;7.01;100.00;100922.56;5056308;28;20700;-77
2022/02/04 06:10:08;;;;;;;7.50;3.42;;;;;;;7.04;100.00;100926.97;5047174;28;20055;-78
2022/02/04 06:27:26;;;;;;;12.55;5.47;;;;;;;7.05;100.00;100912.81;5045111;28;20049;-80
2022/02/04 06:30:19;;;;;;;10.02;5.18;;;;;;;7.07;100.00;100916.31;5058060;28;20148;-80
2022/02/04 06:33:11;;;;;;;16.80;7.43;;;;;;;7.02;100.00;100907.56;5057653;28;20159;-79
2022/02/04 06:35:41;;;;;;;13.15;5.93;;;;;;;7.04;100.00;100901.31;5059319;28;20076;-80
2022/02/04 06:38:09;;;;;;;15.68;6.88;;;;;;;7.07;100.00;100906.56;5054657;28;20067;-80
2022/02/04 06:40:38;;;;;;;13.20;6.93;;;;;;;7.05;100.00;100920.78;5055264;28;20063;-78
2022/02/04 06:43:06;;;;;;;16.65;6.95;;;;;;;7.03;100.00;100899.56;5056796;28;20534;-79
2022/02/04 06:45:35;;;;;;;15.57;7.07;;;;;;;7.04;100.00;100903.97;5058525;28;20492;-78
2022/02/04 06:48:04;;;;;;;14.07;6.80;;;;;;;6.96;100.00;100891.72;5055748;28;20099;-78
2022/02/04 06:50:32;;;;;;;13.57;6.53;;;;;;;6.95;100.00;100896.16;5058192;28;20045;-77
2022/02/04 06:53:00;;;;;;;12.65;6.15;;;;;;;6.99;100.00;100894.34;5056843;28;20098;-80
2022/02/04 06:55:28;;;;;;;15.80;7.72;;;;;;;6.92;100.00;100885.59;5056370;28;20178;-77
2022/02/04 06:57:57;;;;;;;14.50;6.93;;;;;;;6.91;100.00;100883.81;5056629;28;20548;-77
2022/02/04 07:00:27;;;;;;;14.75;6.25;;;;;;;6.88;100.00;100899.81;5055988;28;20459;-77
2022/02/04 07:06:00;;;;;;;14.40;6.82;;;;;;;6.85;100.00;100890.13;5058757;28;20066;-72
2022/02/04 07:09:09;;;;;;;15.07;7.50;;;;;;;6.85;100.00;100879.50;5050884;28;20288;-72
2022/02/04 07:12:04;;;;;;;18.77;8.45;;;;;;;6.83;100.00;100883.97;5054997;28;20071;-72
2022/02/04 07:15:46;;;;;;;19.58;8.38;;;;;;;6.87;100.00;100884.78;5041568;28;20061;-72
2022/02/04 07:22:38;;;;;;;18.90;9.02;;;;;;;6.86;100.00;100889.22;4952311;28;20058;-72
2022/02/04 07:25:23;;;;;;;21.30;9.02;;;;;;;6.89;100.00;100889.16;4943677;28;20051;-72
2022/02/04 07:31:29;;;;;;;19.92;8.95;;;;;;;6.98;100.00;100885.50;5041599;28;20060;-71
2022/02/04 07:34:43;;;;;;;22.08;8.48;;;;;;;7.00;100.00;100875.75;5041083;28;20348;-72
2022/02/04 07:43:36;;;;;;;18.05;7.93;;;;;;;7.01;100.00;100866.84;5057533;28;20048;-72
2022/02/04 07:46:06;;;;;;;20.13;8.50;;;;;;;7.04;100.00;100869.47;5061264;28;20040;-77
2022/02/04 07:48:34;;;;;;;14.73;8.30;;;;;;;7.04;100.00;100866.81;5061969;28;20052;-77
2022/02/04 07:51:02;;;;;;;17.33;8.45;;;;;;;7.07;100.00;100869.41;5056709;28;20220;-77
2022/02/04 07:53:34;;;;;;;16.08;8.80;;;;;;;7.12;100.00;100861.38;5058588;28;20162;-78
2022/02/04 07:56:04;;;;;;;18.15;9.07;;;;;;;7.14;100.00;100858.72;5058976;28;20079;-71
2022/02/04 07:59:05;;;;;;;16.15;7.90;;;;;;;7.14;100.00;100862.22;5057952;28;20078;-72
2022/02/04 08:02:00;;;;;;;16.55;7.75;;;;;;;7.15;100.00;100849.81;5058426;28;20198;-72
2022/02/04 08:04:32;;;;;;;16.27;8.32;;;;;;;7.14;100.00;100848.09;5059477;28;20051;-73
2022/02/04 08:07:05;;;;;;;15.73;7.72;;;;;;;7.16;100.00;100846.28;5056651;28;20096;-71
2022/02/04 08:09:44;;;;;;;14.52;7.00;;;;;;;7.12;100.00;100842.81;5060881;28;20047;-71
2022/02/04 08:12:30;;;;;;;14.23;7.78;;;;;;;7.21;100.00;100845.28;5058470;28;20044;-71
2022/02/04 08:15:08;;;;;;;12.82;6.25;;;;;;;7.27;100.00;100839.88;5060628;28;20106;-72
2022/02/04 08:18:02;;;;;;;13.90;5.93;;;;;;;7.25;100.00;100840.78;5056041;28;20076;-72
2022/02/04 08:26:51;;;;;;;11.57;5.32;;;;;;;7.31;100.00;100822.13;5013512;28;20988;-79
2022/02/04 08:29:42;;;;;;;12.50;5.30;;;;;;;7.28;100.00;100809.75;5044907;28;20123;-71
2022/02/04 08:32:28;;;;;;;13.07;5.40;;;;;;;7.32;100.00;100802.66;5046157;28;20091;-79
2022/02/04 08:35:13;;;;;;;10.52;5.63;;;;;;;7.25;100.00;100815.16;5047910;28;20072;-79
2022/02/04 08:52:10;;;;;;;12.63;6.07;;;;;;;7.32;100.00;100810.59;5044803;28;20551;-77
2022/02/04 08:54:42;;;;;;;;;;;;;;;7.35;100.00;100807.00;5046490;28;20567;-72
2022/02/04 08:57:25;;;;;;;13.75;6.95;;;;;;;7.28;100.00;100799.13;5046524;28;20016;-73
2022/02/04 09:00:02;;;;;;;15.27;7.40;;;;;;;7.30;100.00;100796.47;5046462;28;20299;-73
2022/02/04 09:02:36;;;;;;;14.93;6.78;;;;;;;7.31;100.00;100784.94;5046086;28;20718;-73
2022/02/04 09:05:11;;;;;;;14.82;7.95;;;;;;;7.30;100.00;100780.53;5044038;28;20106;-72
2022/02/04 09:07:54;;;;;;;13.00;7.28;;;;;;;7.34;100.00;100779.59;5043120;28;20429;-72
2022/02/04 09:10:30;;;;;;;12.05;5.75;;;;;;;7.38;100.00;100764.47;5045896;28;20188;-73
2022/02/04 09:19:02;;;;;;;15.57;8.32;;;;;;;7.44;100.00;100767.88;5045951;28;20098;-72
2022/02/04 09:21:50;;;;;;;16.52;8.57;;;;;;;7.45;100.00;100766.97;5042258;28;20097;-72
2022/02/04 09:24:23;;;;;;;16.98;7.25;;;;;;;7.47;100.00;100741.28;5045029;28;20076;-74
2022/02/04 09:26:53;;;;;;;14.52;6.35;;;;;;;7.44;100.00;100749.28;5047112;28;20295;-73
2022/02/04 09:29:31;;;;;;;14.73;6.65;;;;;;;7.48;100.00;100739.47;5045806;28;20057;-72
2022/02/04 09:32:13;;;;;;;13.43;6.68;;;;;;;7.62;100.00;100755.13;5044967;28;20041;-71
2022/02/04 09:34:59;;;;;;;13.10;6.70;;;;;;;7.79;100.00;100742.34;5027748;28;20103;-72
2022/02/04 09:37:38;;;;;;;12.88;6.70;;;;;;;7.77;100.00;100753.94;5033756;28;20099;-72
2022/02/04 09:40:13;;;;;;;13.55;6.57;;;;;;;7.75;100.00;100732.72;5029264;28;20073;-72
2022/02/04 09:42:47;;;;;;;12.50;6.40;;;;;;;7.81;100.00;100737.88;5031647;28;20059;-72
2022/02/04 09:45:27;;;;;;;11.50;6.68;;;;;;;7.80;100.00;100740.59;5030243;28;20401;-72
2022/02/04 09:48:09;;;;;;;12.98;7.43;;;;;;;7.80;100.00;100719.34;5031341;28;20041;-72
2022/02/04 09:50:45;;;;;;;12.27;6.38;;;;;;;7.82;100.00;100730.78;5028742;28;20107;-72
2022/02/04 10:07:31;;;;;;;12.85;6.20;;;;;;;8.08;100.00;100716.03;5009982;28;20081;-75
2022/02/04 10:13:23;;;;;;;11.57;6.05;;;;;;;7.92;100.00;100710.22;5032865;28;20090;-76
2022/02/04 10:16:18;;;;;;;12.35;6.20;;;;;;;7.88;100.00;100721.78;5033163;28;20080;-77
2022/02/04 10:19:03;;;;;;;10.60;6.18;;;;;;;7.75;100.00;100687.56;5032664;28;20053;-75
2022/02/04 10:21:35;;;;;;;9.73;5.55;;;;;;;7.71;100.00;100703.59;5030790;28;20053;-75
2022/02/04 10:24:03;;;;;;;11.10;6.40;;;;;;;7.74;100.00;100690.25;5028517;28;20121;-75
2022/02/04 10:26:42;;;;;;;10.25;5.70;;;;;;;7.73;100.00;100694.69;5033410;28;20539;-71
2022/02/04 10:29:20;;;;;;;10.25;5.35;;;;;;;7.72;100.00;100689.41;5030696;28;20053;-75
2022/02/04 10:31:58;;;;;;;10.68;5.60;;;;;;;7.72;100.00;100690.28;5031204;28;20102;-70
2022/02/04 10:34:35;;;;;;;10.70;6.15;;;;;;;7.76;100.00;100696.38;5030744;28;20049;-75
2022/02/04 10:37:07;;;;;;;12.90;5.93;;;;;;;7.82;100.00;100677.66;5033272;28;20048;-77
2022/02/04 10:40:03;;;;;;;12.45;5.07;;;;;;;7.74;100.00;100680.47;5028619;28;20052;-77
2022/02/04 10:42:38;;;;;;;11.32;6.00;;;;;;;7.81;100.00;100679.41;5032835;28;20052;-77
2022/02/04 10:45:27;;;;;;;11.10;5.25;;;;;;;7.84;100.00;100662.56;5029026;28;20053;-76
2022/02/04 10:48:13;;;;;;;10.30;4.78;;;;;;;7.85;100.00;100664.31;5031252;28;20135;-78
2022/02/04 10:59:41;;;;;;;7.63;4.38;;;;;;;7.80;100.00;100636.97;5030074;28;20045;-79
2022/02/04 11:02:20;;;;;;;8.38;4.90;;;;;;;7.83;100.00;100637.78;5030758;28;20053;-80
2022/02/04 11:05:04;;;;;;;8.80;4.70;;;;;;;7.77;100.00;100629.09;5032547;28;20048;-79
2022/02/04 11:10:47;;;;;;;9.02;4.38;;;;;;;7.73;100.00;100620.31;5030548;28;20067;-80
2022/02/04 11:35:49;;;;;;;10.35;4.90;;;;;;;7.84;100.00;100591.69;5030551;28;20057;-78
2022/02/04 11:48:08;;;;;;;9.88;4.78;;;;;;;7.77;100.00;100566.19;4972721;28;20109;-79
2022/02/04 11:54:18;;;;;;;8.63;5.28;;;;;;;7.82;100.00;100566.97;5020450;28;20053;-72
2022/02/04 11:57:31;;;;;;;10.70;5.53;;;;;;;7.84;100.00;100562.47;5029608;28;20075;-72
2022/02/04 12:00:26;;;;;;;8.63;5.07;;;;;;;7.78;100.00;100548.47;4971037;28;20144;-72
2022/02/04 12:05:58;;;;;;;10.18;5.53;;;;;;;7.64;100.00;100524.91;5025838;28;20496;-69
2022/02/04 12:08:32;;;;;;;9.82;4.32;;;;;;;7.63;100.00;100518.75;5028309;28;20186;-75
2022/02/04 12:11:11;;;;;;;8.43;4.47;;;;;;;7.53;100.00;100527.84;5027147;28;20493;-70
2022/02/04 12:14:11;;;;;;;9.57;3.97;;;;;;;7.56;100.00;100513.59;5010812;28;20087;-75
2022/02/04 12:17:08;;;;;;;8.55;4.38;;;;;;;7.43;100.00;100519.22;5029036;28;20136;-76
2022/02/04 12:20:00;;;;;;;7.45;3.63;;;;;;;7.37;100.00;100524.69;5030884;28;20048;-70
2022/02/04 12:22:53;;;;;;;10.05;4.53;;;;;;;7.25;100.00;100511.69;5029986;28;20082;-70
2022/02/04 12:25:55;;;;;;;10.80;4.15;;;;;;;7.21;100.00;100499.41;5030905;28;20053;-69
2022/02/04 12:28:38;;;;;;;10.02;4.25;;;;;;;7.16;100.00;100480.06;5030978;28;20551;-74
2022/02/04 12:35:11;;;;;;;;;;;;;;;7.08;100.00;100473.19;5028140;28;20060;-72
2022/02/04 12:37:46;;;;;;;10.48;5.25;;;;;;;6.99;100.00;100468.06;5031171;28;19952;-69
2022/02/04 12:40:19;;;;;;;9.07;4.70;;;;;;;7.02;100.00;100459.19;5029509;28;20049;-70
2022/02/04 12:42:47;;;;;;;10.00;4.93;;;;;;;6.99;100.00;100462.75;5028613;28;20076;-70
2022/02/04 12:45:15;;;;;;;9.65;4.32;;;;;;;6.95;100.00;100441.63;5028467;28;20049;-72
2022/02/04 12:47:44;;;;;;;7.45;3.95;;;;;;;6.92;100.00;100445.25;5028228;28;20339;-69
2022/02/04 12:50:12;;;;;;;11.05;5.07;;;;;;;6.90;100.00;100453.25;5028748;28;20156;-72
2022/02/04 12:52:46;;;;;;;13.77;5.07;;;;;;;6.86;100.00;100448.94;5028917;28;20099;-71
2022/02/04 12:55:24;;;;;;;10.85;5.05;;;;;;;6.81;100.00;100434.00;5029136;28;20050;-71
2022/02/04 12:58:42;;;;;;;6.95;3.97;;;;;;;6.79;100.00;100438.47;5028654;28;20134;-69
2022/02/04 13:07:44;;;;;;;13.82;5.60;;;;;;;6.70;100.00;100444.88;5031259;28;20053;-73
2022/02/04 13:10:19;;;;;;;12.30;5.53;;;;;;;6.67;100.00;100464.34;5035247;28;20067;-69
2022/02/04 13:12:53;;;;;;;8.63;3.50;;;;;;;5.80;100.00;100530.50;5035643;28;20051;-73
2022/02/04 13:15:21;;;;;;;;;;;;;;;4.14;100.00;100524.88;5033005;28;20059;-71
2022/02/04 13:17:50;;;;;;;2.67;1.20;;;;;;;3.78;100.00;100549.00;5031654;28;20285;-70
2022/02/04 13:20:22;;;;;;;4.22;1.67;;;;;;;3.59;100.00;100564.09;5033789;28;20234;-71
2022/02/04 13:22:53;;;;;;;1.90;0.90;;;;;;;3.56;100.00;100566.78;5034217;28;20053;-69
2022/02/04 13:25:23;;;;;;;5.20;0.95;;;;;;;3.50;100.00;100564.16;5033817;28;20179;-70
2022/02/04 13:28:04;;;;;;;5.05;1.10;;;;;;;3.37;100.00;100576.56;5035038;28;20478;-69
2022/02/04 13:30:33;;;;;;;1.40;0.77;;;;;;;3.26;100.00;100574.00;5033465;28;20657;-72
2022/02/04 13:33:16;;;;;;;3.28;1.15;;;;;;;3.19;100.00;100577.56;5033779;28;20056;-72
2022/02/04 13:35:53;;;;;;;1.50;0.88;;;;;;;3.21;100.00;100591.63;5035772;28;20552;-69
2022/02/04 13:38:28;;;;;;;2.47;0.73;;;;;;;3.21;100.00;100590.75;5033080;28;20053;-73
2022/02/04 13:41:19;;;;;;;6.20;1.50;;;;;;;3.22;100.00;100601.28;5033430;28;20065;-74
2022/02/04 13:44:19;;;;;;;3.38;1.13;;;;;;;3.13;100.00;100609.22;5032040;28;20053;-73
2022/02/04 13:46:52;;;;;;;1.10;1.10;;;;;;;3.12;100.00;100621.53;5033041;28;20079;-73
2022/02/04 13:49:46;;;;;;;1.52;1.13;;;;;;;3.09;100.00;100618.91;5033033;28;20048;-70
2022/02/04 13:52:20;;;;;;;1.52;1.08;;;;;;;3.04;100.00;100639.16;5032280;28;20053;-72
2022/02/04 13:55:10;;;;;;;1.02;0.90;;;;;;;3.16;100.00;100636.47;5030397;28;20069;-75
2022/02/04 13:57:43;;;;;;;2.70;1.17;;;;;;;2.99;100.00;100649.72;5035385;28;20085;-70
2022/02/04 14:00:24;;;;;;;3.85;1.10;;;;;;;3.01;100.00;100651.47;5030629;28;20045;-70
2022/02/04 14:02:56;;;;;;;2.00;0.98;;;;;;;3.01;100.00;100657.63;5034700;28;20052;-69
2022/02/04 14:05:25;;;;;;;0.70;0.70;;;;;;;3.03;100.00;100661.16;5034976;28;20053;-69
2022/02/04 14:08:06;;;;;;;1.15;0.82;;;;;;;3.10;100.00;100672.50;5031304;28;20218;-71
2022/02/04 14:11:01;;;;;;;;;;;;;;;3.04;100.00;100681.34;5031984;28;20527;-69
2022/02/04 14:13:30;;;;;;;2.20;0.70;;;;;;;3.17;100.00;100680.41;5033598;28;20008;-70
2022/02/04 14:15:59;;;;;;;4.35;1.20;;;;;;;3.26;100.00;100674.22;5032189;28;20057;-70
2022/02/04 14:18:33;;;;;;;1.38;0.88;;;;;;;3.29;100.00;100684.75;5046871;28;20103;-70
2022/02/04 14:21:08;;;;;;;1.85;1.02;;;;;;;3.39;100.00;100689.97;5030575;28;20304;-70
2022/02/04 14:23:41;;;;;;;6.57;1.40;;;;;;;3.49;100.00;100682.03;5034397;28;20380;-70
2022/02/04 14:26:13;;;;;;;;;;;;;;;3.56;100.00;100696.06;5029701;28;20049;-69
2022/02/04 14:28:46;;;;;;;2.72;1.15;;;;;;;3.48;100.00;100700.50;5030086;28;19925;-69
2022/02/04 14:31:20;;;;;;;1.38;0.70;;;;;;;3.46;100.00;100711.06;5030443;28;20079;-69
2022/02/04 14:36:50;;;;;;;1.98;0.90;;;;;;;3.43;100.00;100733.94;5032979;28;20096;-71
2022/02/04 14:53:22;;;;;;;4.93;1.20;;;;;;;3.35;100.00;100784.97;5021470;28;20052;-72
2022/02/04 14:59:10;;;;;;;2.30;1.13;;;;;;;3.39;100.00;100799.03;5030182;28;20099;-69
2022/02/04 15:02:08;;;;;;;5.57;1.92;;;;;;;3.30;100.00;100814.84;5031634;28;20146;-72
2022/02/04 15:04:42;;;;;;;1.02;0.93;;;;;;;3.33;100.00;100820.13;5032432;28;20087;-72
2022/02/04 15:07:11;;;;;;;2.17;1.40;;;;;;;3.29;100.00;100821.91;5030918;28;20051;-68
2022/02/04 15:10:06;;;;;;;4.82;1.00;;;;;;;3.34;100.00;100832.44;5029007;28;20059;-69
2022/02/04 15:13:10;;;;;;;3.47;1.52;;;;;;;3.40;100.00;100842.09;5033946;28;20437;-72
2022/02/04 15:16:06;;;;;;;5.57;1.20;;;;;;;3.37;100.00;100850.88;5031559;28;20060;-71
2022/02/04 15:18:58;;;;;;;2.67;0.98;;;;;;;3.38;100.00;100857.94;5031734;28;20152;-71
2022/02/04 15:21:27;;;;;;;3.97;1.27;;;;;;;3.39;100.00;100874.63;5031143;28;20444;-73
2022/02/04 15:23:55;;;;;;;5.00;1.50;;;;;;;3.35;100.00;100885.22;5031748;28;20048;-72
2022/02/04 15:26:26;;;;;;;2.97;1.27;;;;;;;3.16;100.00;100888.72;5028411;28;20304;-71
2022/02/04 15:29:01;;;;;;;2.13;0.98;;;;;;;3.06;100.00;100897.53;5031174;28;20055;-72
2022/02/04 15:31:40;;;;;;;5.90;1.50;;;;;;;3.08;100.00;100891.38;5029663;28;20064;-71
2022/02/04 15:34:09;;;;;;;4.10;1.40;;;;;;;3.15;100.00;100887.84;5031558;28;20533;-72
2022/02/04 15:37:01;;;;;;;2.50;1.05;;;;;;;3.27;100.00;100901.91;5034117;28;20195;-69
2022/02/04 15:39:30;;;;;;;2.78;1.30;;;;;;;3.28;100.00;100912.44;5030077;28;20483;-68
2022/02/04 15:42:03;;;;;;;2.25;1.42;;;;;;;3.36;100.00;100918.59;5029264;28;20106;-68
2022/02/04 15:44:42;;;;;;;4.53;1.55;;;;;;;3.42;100.00;100924.75;5028957;28;20481;-68
2022/02/04 15:53:13;;;;;;;3.15;1.45;;;;;;;3.41;100.00;100949.38;5032005;28;20498;-69
2022/02/04 15:56:08;;;;;;;4.78;1.42;;;;;;;3.19;100.00;100952.03;5031385;28;20557;-67
2022/02/04 15:58:52;;;;;;;2.17;1.50;;;;;;;3.14;100.00;100957.28;5031548;28;20099;-69
2022/02/04 16:01:30;;;;;;;3.20;1.60;;;;;;;3.16;100.00;100984.53;5033006;28;20053;-69
2022/02/04 16:04:20;;;;;;;5.25;1.60;;;;;;;3.27;100.00;100987.19;5031746;28;20053;-68
2022/02/04 16:06:49;;;;;;;6.22;1.98;;;;;;;3.31;100.00;101010.03;5028485;28;20397;-68
2022/02/04 16:09:19;;;;;;;4.65;1.70;;;;;;;3.33;100.00;100991.59;5032382;28;20050;-68
2022/02/04 16:12:06;;;;;;;8.00;1.90;;;;;;;3.13;100.00;101002.09;5031609;28;20053;-68
2022/02/04 16:14:39;;;;;;;12.88;2.90;;;;;;;3.01;100.00;101000.34;5029965;28;20053;-72
2022/02/04 16:17:14;;;;;;;7.93;2.50;;;;;;;2.95;100.00;101010.88;5028516;28;20157;-73
2022/02/04 16:19:46;;;;;;;6.35;2.45;;;;;;;2.95;100.00;101017.03;5031004;28;20053;-72
2022/02/04 16:22:18;;;;;;;5.10;1.92;;;;;;;2.92;100.00;101039.88;5028110;28;20136;-71
2022/02/04 16:30:41;;;;;;;11.90;2.88;;;;;;;3.09;100.00;101068.91;5030032;28;20049;-68
2022/02/04 16:33:10;;;;;;;12.65;2.67;;;;;;;3.14;100.00;101067.16;5029907;28;20379;-71
2022/02/04 16:35:39;;;;;;;9.50;3.17;;;;;;;3.27;100.00;101073.34;5029792;28;20053;-71
2022/02/04 16:38:09;;;;;;;7.25;2.92;;;;;;;3.31;100.00;101072.47;5029440;28;20053;-71
2022/02/04 16:40:42;;;;;;;8.95;2.17;;;;;;;3.35;100.00;101080.41;5031360;28;20516;-71
2022/02/04 16:43:10;;;;;;;9.35;2.97;;;;;;;3.45;100.00;101089.19;5031784;28;20436;-70
2022/02/04 16:45:38;;;;;;;8.57;3.53;;;;;;;3.46;100.00;101095.38;5034639;28;20041;-70
2022/02/04 16:48:06;;;;;;;13.25;3.50;;;;;;;3.41;100.00;101094.47;5031961;28;20053;-70
2022/02/04 16:50:42;;;;;;;12.80;4.35;;;;;;;3.41;100.00;101095.34;5034347;28;20124;-70
2022/02/04 16:53:12;;;;;;;12.60;3.75;;;;;;;3.44;100.00;101105.91;5034195;28;20210;-66
2022/02/04 16:55:40;;;;;;;8.50;3.20;;;;;;;3.47;100.00;101105.03;5034435;28;20052;-67
2022/02/04 16:58:09;;;;;;;8.65;3.40;;;;;;;3.54;100.00;101104.16;5031396;28;20262;-69
2022/02/04 17:00:40;;;;;;;11.52;3.55;;;;;;;3.54;100.00;101102.41;5035542;28;20045;-66
2022/02/04 17:03:10;;;;;;;8.95;2.92;;;;;;;3.60;100.00;101106.81;5033247;28;20076;-67
2022/02/04 17:05:51;;;;;;;7.13;3.00;;;;;;;3.64;100.00;101097.13;5033655;28;20135;-67
2022/02/04 17:08:33;;;;;;;7.72;3.08;;;;;;;3.68;100.00;101131.44;5032330;28;20053;-67
2022/02/04 17:11:33;;;;;;;12.82;3.97;;;;;;;3.72;100.00;101122.63;5034535;28;20500;-67
2022/02/04 17:14:08;;;;;;;17.50;4.72;;;;;;;3.66;100.00;101120.03;5034165;28;20056;-67